sensor_id;sensor_type;location;lat;lon;timestamp;temperature;humidity
1063;DHT22;520;50.932;6.962;2023-02-21T00:01:02;10.60;99.90
1063;DHT22;520;50.932;6.962;2023-02-21T00:03:52;10.40;99.90
1063;DHT22;520;50.932;6.962;2023-02-21T00:06:43;10.40;99.90
1063;DHT22;520;50.932;6.962;2023-02-21T00:09:29;10.30;99.90
1063;DHT22;520;50.932;6.962;2023-02-21T00:12:15;10.30;99.90
1063;DHT22;520;50.932;6.962;2023-02-21T00:15:00;10.30;99.90
1063;DHT22;520;50.932;6.962;2023-02-21T00:17:57;10.40;99.90
1063;DHT22;520;50.932;6.962;2023-02-21T00:20:43;11.10;99.90
1063;DHT22;520;50.932;6.962;2023-02-21T00:23:33;11.20;99.90
1063;DHT22;520;50.932;6.962;2023-02-21T00:26:20;11.00;99.90
1063;DHT22;520;50.932;6.962;2023-02-21T00:29:06;11.10;99.90
1063;DHT22;520;50.932;6.962;2023-02-21T00:31:52;11.00;99.90
1063;DHT22;520;50.932;6.962;2023-02-21T00:34:41;10.90;99.90
1063;DHT22;520;50.932;6.962;2023-02-21T00:37:26;10.70;99.90
1063;DHT22;520;50.932;6.962;2023-02-21T00:40:13;10.60;99.90
1063;DHT22;520;50.932;6.962;2023-02-21T00:43:01;10.50;99.90
1063;DHT22;520;50.932;6.962;2023-02-21T00:45:46;10.60;99.90
1063;DHT22;520;50.932;6.962;2023-02-21T00:48:31;10.70;99.90
1063;DHT22;520;50.932;6.962;2023-02-21T00:51:17;10.60;99.90
1063;DHT22;520;50.932;6.962;2023-02-21T00:54:03;10.50;99.90
1063;DHT22;520;50.932;6.962;2023-02-21T00:56:55;10.60;99.90
1063;DHT22;520;50.932;6.962;2023-02-21T00:59:40;10.50;99.90
1063;DHT22;520;50.932;6.962;2023-02-21T01:02:26;10.50;99.90
1063;DHT22;520;50.932;6.962;2023-02-21T01:05:11;10.40;99.90
1063;DHT22;520;50.932;6.962;2023-02-21T01:07:56;10.40;99.90
1063;DHT22;520;50.932;6.962;2023-02-21T01:10:42;10.30;99.90
1063;DHT22;520;50.932;6.962;2023-02-21T01:16:05;10.30;99.90
1063;DHT22;520;50.932;6.962;2023-02-21T01:18:51;10.30;99.90
1063;DHT22;520;50.932;6.962;2023-02-21T01:21:38;10.30;99.90
1063;DHT22;520;50.932;6.962;2023-02-21T01:24:23;10.30;99.90
1063;DHT22;520;50.932;6.962;2023-02-21T01:27:09;10.40;99.90
1063;DHT22;520;50.932;6.962;2023-02-21T01:29:55;10.50;99.90
1063;DHT22;520;50.932;6.962;2023-02-21T01:32:41;10.80;99.90
1063;DHT22;520;50.932;6.962;2023-02-21T01:35:27;11.00;99.90
1063;DHT22;520;50.932;6.962;2023-02-21T01:38:12;11.20;99.90
1063;DHT22;520;50.932;6.962;2023-02-21T01:40:58;11.20;99.90
1063;DHT22;520;50.932;6.962;2023-02-21T01:44:05;11.00;99.90
1063;DHT22;520;50.932;6.962;2023-02-21T01:46:50;10.80;99.90
1063;DHT22;520;50.932;6.962;2023-02-21T01:49:38;11.10;99.90
1063;DHT22;520;50.932;6.962;2023-02-21T01:52:25;10.90;99.90
1063;DHT22;520;50.932;6.962;2023-02-21T01:55:11;10.90;99.90
1063;DHT22;520;50.932;6.962;2023-02-21T01:57:57;10.70;99.90
1063;DHT22;520;50.932;6.962;2023-02-21T02:00:43;10.90;99.90
1063;DHT22;520;50.932;6.962;2023-02-21T02:03:29;11.20;99.90
1063;DHT22;520;50.932;6.962;2023-02-21T02:06:16;11.10;99.90
1063;DHT22;520;50.932;6.962;2023-02-21T02:09:19;11.30;99.90
1063;DHT22;520;50.932;6.962;2023-02-21T02:12:15;11.20;99.90
1063;DHT22;520;50.932;6.962;2023-02-21T02:34:52;11.10;99.90
1063;DHT22;520;50.932;6.962;2023-02-21T02:40:27;11.00;99.90
1063;DHT22;520;50.932;6.962;2023-02-21T02:45:39;11.10;99.90
1063;DHT22;520;50.932;6.962;2023-02-21T02:50:40;11.00;99.90
1063;DHT22;520;50.932;6.962;2023-02-21T02:53:10;11.00;99.90
1063;DHT22;520;50.932;6.962;2023-02-21T02:55:44;10.90;99.90
1063;DHT22;520;50.932;6.962;2023-02-21T02:58:14;10.90;99.90
1063;DHT22;520;50.932;6.962;2023-02-21T03:00:47;10.70;99.90
1063;DHT22;520;50.932;6.962;2023-02-21T03:03:43;11.00;99.90
1063;DHT22;520;50.932;6.962;2023-02-21T03:07:14;11.10;99.90
1063;DHT22;520;50.932;6.962;2023-02-21T03:12:36;11.00;99.90
1063;DHT22;520;50.932;6.962;2023-02-21T03:15:16;10.80;99.90
1063;DHT22;520;50.932;6.962;2023-02-21T03:17:50;10.90;99.90
1063;DHT22;520;50.932;6.962;2023-02-21T03:20:20;10.80;99.90
1063;DHT22;520;50.932;6.962;2023-02-21T03:22:49;10.90;99.90
1063;DHT22;520;50.932;6.962;2023-02-21T03:25:17;11.00;99.90
1063;DHT22;520;50.932;6.962;2023-02-21T03:27:46;11.00;99.90
1063;DHT22;520;50.932;6.962;2023-02-21T03:30:14;10.90;99.90
1063;DHT22;520;50.932;6.962;2023-02-21T03:32:50;10.90;99.90
1063;DHT22;520;50.932;6.962;2023-02-21T03:35:18;10.70;99.90
1063;DHT22;520;50.932;6.962;2023-02-21T03:37:49;10.50;99.90
1063;DHT22;520;50.932;6.962;2023-02-21T03:40:26;10.30;99.90
1063;DHT22;520;50.932;6.962;2023-02-21T03:42:57;10.30;99.90
1063;DHT22;520;50.932;6.962;2023-02-21T03:45:24;10.30;99.90
1063;DHT22;520;50.932;6.962;2023-02-21T03:47:51;10.30;99.90
1063;DHT22;520;50.932;6.962;2023-02-21T03:50:18;10.20;99.90
1063;DHT22;520;50.932;6.962;2023-02-21T03:52:44;10.20;99.90
1063;DHT22;520;50.932;6.962;2023-02-21T03:55:11;10.20;99.90
1063;DHT22;520;50.932;6.962;2023-02-21T03:57:38;10.20;99.90
1063;DHT22;520;50.932;6.962;2023-02-21T04:00:05;10.60;99.90
1063;DHT22;520;50.932;6.962;2023-02-21T04:02:32;11.00;99.90
1063;DHT22;520;50.932;6.962;2023-02-21T04:04:59;10.90;99.90
1063;DHT22;520;50.932;6.962;2023-02-21T04:07:26;11.10;99.90
1063;DHT22;520;50.932;6.962;2023-02-21T04:09:52;10.80;99.90
1063;DHT22;520;50.932;6.962;2023-02-21T04:12:20;10.60;99.90
1063;DHT22;520;50.932;6.962;2023-02-21T04:14:49;10.40;99.90
1063;DHT22;520;50.932;6.962;2023-02-21T04:17:17;10.30;99.90
1063;DHT22;520;50.932;6.962;2023-02-21T04:19:47;10.40;99.90
1063;DHT22;520;50.932;6.962;2023-02-21T04:22:14;10.40;99.90
1063;DHT22;520;50.932;6.962;2023-02-21T04:24:41;10.30;99.90
1063;DHT22;520;50.932;6.962;2023-02-21T04:27:08;10.40;99.90
1063;DHT22;520;50.932;6.962;2023-02-21T04:29:35;10.80;99.90
1063;DHT22;520;50.932;6.962;2023-02-21T04:32:03;11.00;99.90
1063;DHT22;520;50.932;6.962;2023-02-21T04:34:30;11.00;99.90
1063;DHT22;520;50.932;6.962;2023-02-21T04:36:57;10.80;99.90
1063;DHT22;520;50.932;6.962;2023-02-21T04:39:23;10.60;99.90
1063;DHT22;520;50.932;6.962;2023-02-21T04:41:50;10.50;99.90
1063;DHT22;520;50.932;6.962;2023-02-21T04:44:18;10.50;99.90
1063;DHT22;520;50.932;6.962;2023-02-21T04:46:45;10.70;99.90
1063;DHT22;520;50.932;6.962;2023-02-21T04:49:12;10.80;99.90
1063;DHT22;520;50.932;6.962;2023-02-21T04:51:39;11.00;99.90
1063;DHT22;520;50.932;6.962;2023-02-21T04:54:06;11.20;99.90
1063;DHT22;520;50.932;6.962;2023-02-21T04:56:33;10.90;99.90
1063;DHT22;520;50.932;6.962;2023-02-21T04:59:00;10.90;99.90
1063;DHT22;520;50.932;6.962;2023-02-21T05:01:29;11.10;99.90
1063;DHT22;520;50.932;6.962;2023-02-21T05:03:58;11.10;99.90
1063;DHT22;520;50.932;6.962;2023-02-21T05:06:26;11.10;99.90
1063;DHT22;520;50.932;6.962;2023-02-21T05:08:53;11.00;99.90
1063;DHT22;520;50.932;6.962;2023-02-21T05:11:21;10.90;99.90
1063;DHT22;520;50.932;6.962;2023-02-21T05:13:48;10.90;99.90
1063;DHT22;520;50.932;6.962;2023-02-21T05:16:15;10.90;99.90
1063;DHT22;520;50.932;6.962;2023-02-21T05:18:44;10.80;99.90
1063;DHT22;520;50.932;6.962;2023-02-21T05:21:11;10.70;99.90
1063;DHT22;520;50.932;6.962;2023-02-21T05:23:39;10.90;99.90
1063;DHT22;520;50.932;6.962;2023-02-21T05:26:09;10.90;99.90
1063;DHT22;520;50.932;6.962;2023-02-21T05:28:37;10.60;99.90
1063;DHT22;520;50.932;6.962;2023-02-21T05:31:05;10.40;99.90
1063;DHT22;520;50.932;6.962;2023-02-21T05:33:32;10.30;99.90
1063;DHT22;520;50.932;6.962;2023-02-21T05:36:00;10.20;99.90
1063;DHT22;520;50.932;6.962;2023-02-21T05:38:27;10.20;99.90
1063;DHT22;520;50.932;6.962;2023-02-21T05:40:56;10.20;99.90
1063;DHT22;520;50.932;6.962;2023-02-21T05:43:29;10.10;99.90
1063;DHT22;520;50.932;6.962;2023-02-21T05:46:06;10.30;99.90
1063;DHT22;520;50.932;6.962;2023-02-21T05:48:33;10.30;99.90
1063;DHT22;520;50.932;6.962;2023-02-21T05:51:03;10.30;99.90
1063;DHT22;520;50.932;6.962;2023-02-21T05:53:29;10.70;99.90
1063;DHT22;520;50.932;6.962;2023-02-21T05:55:57;10.60;99.90
1063;DHT22;520;50.932;6.962;2023-02-21T05:58:30;10.80;99.90
1063;DHT22;520;50.932;6.962;2023-02-21T06:00:59;10.70;99.90
1063;DHT22;520;50.932;6.962;2023-02-21T06:03:26;10.50;99.90
1063;DHT22;520;50.932;6.962;2023-02-21T06:05:54;10.60;99.90
1063;DHT22;520;50.932;6.962;2023-02-21T06:08:21;10.50;99.90
1063;DHT22;520;50.932;6.962;2023-02-21T06:10:54;10.30;99.90
1063;DHT22;520;50.932;6.962;2023-02-21T06:13:22;10.30;99.90
1063;DHT22;520;50.932;6.962;2023-02-21T06:15:49;10.20;99.90
1063;DHT22;520;50.932;6.962;2023-02-21T06:18:16;10.10;99.90
1063;DHT22;520;50.932;6.962;2023-02-21T06:20:43;10.20;99.90
1063;DHT22;520;50.932;6.962;2023-02-21T06:23:11;10.20;99.90
1063;DHT22;520;50.932;6.962;2023-02-21T06:25:40;10.10;99.90
1063;DHT22;520;50.932;6.962;2023-02-21T06:28:09;10.10;99.90
1063;DHT22;520;50.932;6.962;2023-02-21T06:30:38;10.20;99.90
1063;DHT22;520;50.932;6.962;2023-02-21T06:33:07;10.20;99.90
1063;DHT22;520;50.932;6.962;2023-02-21T06:35:38;10.10;99.90
1063;DHT22;520;50.932;6.962;2023-02-21T06:38:05;10.10;99.90
1063;DHT22;520;50.932;6.962;2023-02-21T06:40:32;10.10;99.90
1063;DHT22;520;50.932;6.962;2023-02-21T06:42:59;10.10;99.90
1063;DHT22;520;50.932;6.962;2023-02-21T06:45:29;10.10;99.90
1063;DHT22;520;50.932;6.962;2023-02-21T06:48:03;10.10;99.90
1063;DHT22;520;50.932;6.962;2023-02-21T06:50:37;10.00;99.90
1063;DHT22;520;50.932;6.962;2023-02-21T06:53:04;10.00;99.90
1063;DHT22;520;50.932;6.962;2023-02-21T06:55:34;10.00;99.90
1063;DHT22;520;50.932;6.962;2023-02-21T06:58:01;10.00;99.90
1063;DHT22;520;50.932;6.962;2023-02-21T07:00:29;10.10;99.90
1063;DHT22;520;50.932;6.962;2023-02-21T07:03:02;10.00;99.90
1063;DHT22;520;50.932;6.962;2023-02-21T07:05:32;10.00;99.90
1063;DHT22;520;50.932;6.962;2023-02-21T07:08:08;10.20;99.90
1063;DHT22;520;50.932;6.962;2023-02-21T07:10:43;10.30;99.90
1063;DHT22;520;50.932;6.962;2023-02-21T07:13:17;10.30;99.90
1063;DHT22;520;50.932;6.962;2023-02-21T07:15:48;10.20;99.90
1063;DHT22;520;50.932;6.962;2023-02-21T07:18:17;10.10;99.90
1063;DHT22;520;50.932;6.962;2023-02-21T07:20:44;10.10;99.90
1063;DHT22;520;50.932;6.962;2023-02-21T07:23:17;10.10;99.90
1063;DHT22;520;50.932;6.962;2023-02-21T07:25:44;10.00;99.90
1063;DHT22;520;50.932;6.962;2023-02-21T07:28:14;10.10;99.90
1063;DHT22;520;50.932;6.962;2023-02-21T07:31:02;10.00;99.90
1063;DHT22;520;50.932;6.962;2023-02-21T07:33:32;10.00;99.90
1063;DHT22;520;50.932;6.962;2023-02-21T07:36:02;10.00;99.90
1063;DHT22;520;50.932;6.962;2023-02-21T07:38:38;10.10;99.90
1063;DHT22;520;50.932;6.962;2023-02-21T07:41:07;10.10;99.90
1063;DHT22;520;50.932;6.962;2023-02-21T07:43:39;10.00;99.90
1063;DHT22;520;50.932;6.962;2023-02-21T07:46:26;10.00;99.90
1063;DHT22;520;50.932;6.962;2023-02-21T07:48:56;10.00;99.90
1063;DHT22;520;50.932;6.962;2023-02-21T07:51:27;10.10;99.90
1063;DHT22;520;50.932;6.962;2023-02-21T07:53:54;10.10;99.90
1063;DHT22;520;50.932;6.962;2023-02-21T07:56:22;10.10;99.90
1063;DHT22;520;50.932;6.962;2023-02-21T07:58:53;10.20;99.90
1063;DHT22;520;50.932;6.962;2023-02-21T08:01:29;10.10;99.90
1063;DHT22;520;50.932;6.962;2023-02-21T08:03:57;10.10;99.90
1063;DHT22;520;50.932;6.962;2023-02-21T08:06:28;10.10;99.90
1063;DHT22;520;50.932;6.962;2023-02-21T08:09:03;10.10;99.90
1063;DHT22;520;50.932;6.962;2023-02-21T08:11:30;10.00;99.90
1063;DHT22;520;50.932;6.962;2023-02-21T08:13:58;10.00;99.90
1063;DHT22;520;50.932;6.962;2023-02-21T08:16:25;10.10;99.90
1063;DHT22;520;50.932;6.962;2023-02-21T08:18:54;10.10;99.90
1063;DHT22;520;50.932;6.962;2023-02-21T08:21:21;10.00;99.90
1063;DHT22;520;50.932;6.962;2023-02-21T08:23:54;10.00;99.90
1063;DHT22;520;50.932;6.962;2023-02-21T08:26:25;10.30;99.90
1063;DHT22;520;50.932;6.962;2023-02-21T08:28:57;10.20;99.90
1063;DHT22;520;50.932;6.962;2023-02-21T08:31:36;10.10;99.90
1063;DHT22;520;50.932;6.962;2023-02-21T08:34:05;10.20;99.90
1063;DHT22;520;50.932;6.962;2023-02-21T08:36:34;10.20;99.90
1063;DHT22;520;50.932;6.962;2023-02-21T08:39:03;10.20;99.90
1063;DHT22;520;50.932;6.962;2023-02-21T08:41:49;10.20;99.90
1063;DHT22;520;50.932;6.962;2023-02-21T08:44:19;10.10;99.90
1063;DHT22;520;50.932;6.962;2023-02-21T08:46:48;10.10;99.90
1063;DHT22;520;50.932;6.962;2023-02-21T08:49:15;10.10;99.90
1063;DHT22;520;50.932;6.962;2023-02-21T08:51:43;10.20;99.90
1063;DHT22;520;50.932;6.962;2023-02-21T08:54:10;10.20;99.90
1063;DHT22;520;50.932;6.962;2023-02-21T08:56:37;10.10;99.90
1063;DHT22;520;50.932;6.962;2023-02-21T08:59:07;10.20;99.90
1063;DHT22;520;50.932;6.962;2023-02-21T09:01:35;10.20;99.90
1063;DHT22;520;50.932;6.962;2023-02-21T09:04:05;10.20;99.90
1063;DHT22;520;50.932;6.962;2023-02-21T09:06:37;10.20;99.90
1063;DHT22;520;50.932;6.962;2023-02-21T09:09:07;10.30;99.90
1063;DHT22;520;50.932;6.962;2023-02-21T09:11:39;10.30;99.90
1063;DHT22;520;50.932;6.962;2023-02-21T09:14:13;10.30;99.90
1063;DHT22;520;50.932;6.962;2023-02-21T09:16:40;10.30;99.90
1063;DHT22;520;50.932;6.962;2023-02-21T09:19:08;10.30;99.90
1063;DHT22;520;50.932;6.962;2023-02-21T09:21:35;10.20;99.90
1063;DHT22;520;50.932;6.962;2023-02-21T09:24:06;10.50;99.90
1063;DHT22;520;50.932;6.962;2023-02-21T09:26:34;10.90;99.90
1063;DHT22;520;50.932;6.962;2023-02-21T09:29:08;11.20;99.90
1063;DHT22;520;50.932;6.962;2023-02-21T09:31:50;10.80;99.90
1063;DHT22;520;50.932;6.962;2023-02-21T09:34:42;10.60;99.90
1063;DHT22;520;50.932;6.962;2023-02-21T09:37:16;10.60;99.90
1063;DHT22;520;50.932;6.962;2023-02-21T09:39:43;10.80;99.90
1063;DHT22;520;50.932;6.962;2023-02-21T09:42:18;10.70;99.90
1063;DHT22;520;50.932;6.962;2023-02-21T09:44:51;10.60;99.90
1063;DHT22;520;50.932;6.962;2023-02-21T09:47:31;10.50;99.90
1063;DHT22;520;50.932;6.962;2023-02-21T09:50:05;10.50;99.90
1063;DHT22;520;50.932;6.962;2023-02-21T09:52:46;10.50;99.90
1063;DHT22;520;50.932;6.962;2023-02-21T09:55:27;10.80;99.90
1063;DHT22;520;50.932;6.962;2023-02-21T09:57:59;10.60;99.90
1063;DHT22;520;50.932;6.962;2023-02-21T10:00:35;10.50;99.90
1063;DHT22;520;50.932;6.962;2023-02-21T10:03:35;10.50;99.90
1063;DHT22;520;50.932;6.962;2023-02-21T10:06:21;10.60;99.90
1063;DHT22;520;50.932;6.962;2023-02-21T10:20:58;10.70;99.90
1063;DHT22;520;50.932;6.962;2023-02-21T10:23:37;11.20;99.90
1063;DHT22;520;50.932;6.962;2023-02-21T10:26:15;11.10;99.90
1063;DHT22;520;50.932;6.962;2023-02-21T10:28:44;11.00;99.90
1063;DHT22;520;50.932;6.962;2023-02-21T10:31:20;11.00;99.90
1063;DHT22;520;50.932;6.962;2023-02-21T10:33:51;10.90;99.90
1063;DHT22;520;50.932;6.962;2023-02-21T10:36:21;10.80;99.90
1063;DHT22;520;50.932;6.962;2023-02-21T10:39:19;10.80;99.90
1063;DHT22;520;50.932;6.962;2023-02-21T10:41:48;10.80;99.90
1063;DHT22;520;50.932;6.962;2023-02-21T10:44:31;10.70;99.90
1063;DHT22;520;50.932;6.962;2023-02-21T10:47:15;10.70;99.90
1063;DHT22;520;50.932;6.962;2023-02-21T10:49:55;10.80;99.90
1063;DHT22;520;50.932;6.962;2023-02-21T10:52:25;11.20;99.90
1063;DHT22;520;50.932;6.962;2023-02-21T10:55:03;11.70;99.90
1063;DHT22;520;50.932;6.962;2023-02-21T10:57:32;11.60;99.90
1063;DHT22;520;50.932;6.962;2023-02-21T11:00:00;11.50;99.90
1063;DHT22;520;50.932;6.962;2023-02-21T11:02:38;11.40;99.90
1063;DHT22;520;50.932;6.962;2023-02-21T11:05:18;11.30;99.90
1063;DHT22;520;50.932;6.962;2023-02-21T11:08:04;11.40;99.90
1063;DHT22;520;50.932;6.962;2023-02-21T11:10:42;11.40;99.90
1063;DHT22;520;50.932;6.962;2023-02-21T11:13:21;11.70;99.90
1063;DHT22;520;50.932;6.962;2023-02-21T11:16:08;11.50;99.90
1063;DHT22;520;50.932;6.962;2023-02-21T11:18:35;11.20;99.90
1063;DHT22;520;50.932;6.962;2023-02-21T11:21:29;11.10;99.90
1063;DHT22;520;50.932;6.962;2023-02-21T11:24:06;11.00;99.90
1063;DHT22;520;50.932;6.962;2023-02-21T11:26:38;11.00;99.90
1063;DHT22;520;50.932;6.962;2023-02-21T11:29:13;11.30;99.90
1063;DHT22;520;50.932;6.962;2023-02-21T11:31:43;11.30;99.90
1063;DHT22;520;50.932;6.962;2023-02-21T11:34:13;11.30;99.90
1063;DHT22;520;50.932;6.962;2023-02-21T11:36:43;11.20;99.90
1063;DHT22;520;50.932;6.962;2023-02-21T11:41:59;11.40;99.90
1063;DHT22;520;50.932;6.962;2023-02-21T11:44:33;11.40;99.90
1063;DHT22;520;50.932;6.962;2023-02-21T11:47:36;11.60;99.90
1063;DHT22;520;50.932;6.962;2023-02-21T11:50:10;12.10;99.90
1063;DHT22;520;50.932;6.962;2023-02-21T11:52:44;11.90;99.90
1063;DHT22;520;50.932;6.962;2023-02-21T11:55:20;11.80;99.90
1063;DHT22;520;50.932;6.962;2023-02-21T11:58:24;12.00;99.90
1063;DHT22;520;50.932;6.962;2023-02-21T12:03:56;11.80;99.90
1063;DHT22;520;50.932;6.962;2023-02-21T12:07:07;11.60;99.90
1063;DHT22;520;50.932;6.962;2023-02-21T12:12:48;12.10;99.90
1063;DHT22;520;50.932;6.962;2023-02-21T12:15:37;12.00;99.90
1063;DHT22;520;50.932;6.962;2023-02-21T12:18:26;12.50;99.90
1063;DHT22;520;50.932;6.962;2023-02-21T12:21:08;12.60;99.90
1063;DHT22;520;50.932;6.962;2023-02-21T12:26:46;12.60;99.90
1063;DHT22;520;50.932;6.962;2023-02-21T12:32:50;12.80;99.90
1063;DHT22;520;50.932;6.962;2023-02-21T12:49:25;13.30;99.50
1063;DHT22;520;50.932;6.962;2023-02-21T12:52:03;13.40;99.50
1063;DHT22;520;50.932;6.962;2023-02-21T12:54:39;13.20;99.50
1063;DHT22;520;50.932;6.962;2023-02-21T13:00:20;13.40;99.60
1063;DHT22;520;50.932;6.962;2023-02-21T13:05:49;13.80;98.40
1063;DHT22;520;50.932;6.962;2023-02-21T13:08:31;13.80;98.80
1063;DHT22;520;50.932;6.962;2023-02-21T13:11:15;14.00;98.40
1063;DHT22;520;50.932;6.962;2023-02-21T13:13:44;14.10;98.10
1063;DHT22;520;50.932;6.962;2023-02-21T13:16:12;14.00;97.80
1063;DHT22;520;50.932;6.962;2023-02-21T13:18:54;13.90;97.80
1063;DHT22;520;50.932;6.962;2023-02-21T13:21:49;13.70;98.20
1063;DHT22;520;50.932;6.962;2023-02-21T13:29:49;14.00;98.30
1063;DHT22;520;50.932;6.962;2023-02-21T13:32:18;14.20;98.10
1063;DHT22;520;50.932;6.962;2023-02-21T13:34:54;14.30;97.50
1063;DHT22;520;50.932;6.962;2023-02-21T13:37:29;14.20;97.40
1063;DHT22;520;50.932;6.962;2023-02-21T13:39:59;13.80;98.00
1063;DHT22;520;50.932;6.962;2023-02-21T13:42:36;14.10;98.30
1063;DHT22;520;50.932;6.962;2023-02-21T13:45:21;14.40;97.70
1063;DHT22;520;50.932;6.962;2023-02-21T13:58:35;14.10;97.90
1063;DHT22;520;50.932;6.962;2023-02-21T14:03:43;14.10;98.00
1063;DHT22;520;50.932;6.962;2023-02-21T14:08:42;13.70;98.30
1063;DHT22;520;50.932;6.962;2023-02-21T14:11:15;14.10;98.30
1063;DHT22;520;50.932;6.962;2023-02-21T14:16:30;14.00;98.00
1063;DHT22;520;50.932;6.962;2023-02-21T14:19:05;13.90;98.10
1063;DHT22;520;50.932;6.962;2023-02-21T14:21:45;14.00;98.40
1063;DHT22;520;50.932;6.962;2023-02-21T14:24:18;14.00;98.30
1063;DHT22;520;50.932;6.962;2023-02-21T14:27:03;14.10;98.10
1063;DHT22;520;50.932;6.962;2023-02-21T14:29:32;14.10;98.00
1063;DHT22;520;50.932;6.962;2023-02-21T14:40:17;13.80;98.50
1063;DHT22;520;50.932;6.962;2023-02-21T14:45:23;13.40;99.30
1063;DHT22;520;50.932;6.962;2023-02-21T14:53:55;13.40;99.60
1063;DHT22;520;50.932;6.962;2023-02-21T14:59:09;13.30;99.50
1063;DHT22;520;50.932;6.962;2023-02-21T15:07:21;13.20;99.90
1063;DHT22;520;50.932;6.962;2023-02-21T15:12:42;13.00;99.90
1063;DHT22;520;50.932;6.962;2023-02-21T15:15:25;12.90;99.90
1063;DHT22;520;50.932;6.962;2023-02-21T15:18:08;12.90;99.90
1063;DHT22;520;50.932;6.962;2023-02-21T15:23:24;12.90;99.90
1063;DHT22;520;50.932;6.962;2023-02-21T15:25:56;12.90;99.90
1063;DHT22;520;50.932;6.962;2023-02-21T15:31:56;12.90;99.90
1063;DHT22;520;50.932;6.962;2023-02-21T15:34:40;12.80;99.90
1063;DHT22;520;50.932;6.962;2023-02-21T15:37:27;12.70;99.90
1063;DHT22;520;50.932;6.962;2023-02-21T15:40:00;12.60;99.90
1063;DHT22;520;50.932;6.962;2023-02-21T15:42:31;12.80;99.90
1063;DHT22;520;50.932;6.962;2023-02-21T15:45:10;13.00;99.90
1063;DHT22;520;50.932;6.962;2023-02-21T15:47:44;12.80;99.90
1063;DHT22;520;50.932;6.962;2023-02-21T15:50:13;12.80;99.90
1063;DHT22;520;50.932;6.962;2023-02-21T15:52:47;12.70;99.90
1063;DHT22;520;50.932;6.962;2023-02-21T15:58:08;12.80;99.90
1063;DHT22;520;50.932;6.962;2023-02-21T16:00:39;12.70;99.90
1063;DHT22;520;50.932;6.962;2023-02-21T16:08:38;12.60;99.90
1063;DHT22;520;50.932;6.962;2023-02-21T16:17:20;12.20;99.90
1063;DHT22;520;50.932;6.962;2023-02-21T16:19:53;12.00;99.90
1063;DHT22;520;50.932;6.962;2023-02-21T16:22:28;12.10;99.90
1063;DHT22;520;50.932;6.962;2023-02-21T16:25:23;12.00;99.90
1063;DHT22;520;50.932;6.962;2023-02-21T16:27:55;11.90;99.90
1063;DHT22;520;50.932;6.962;2023-02-21T16:33:13;11.60;99.90
1063;DHT22;520;50.932;6.962;2023-02-21T16:35:41;11.70;99.90
1063;DHT22;520;50.932;6.962;2023-02-21T16:38:13;11.60;99.90
1063;DHT22;520;50.932;6.962;2023-02-21T16:40:41;11.50;99.90
1063;DHT22;520;50.932;6.962;2023-02-21T16:43:18;11.50;99.90
1063;DHT22;520;50.932;6.962;2023-02-21T16:48:40;11.30;99.90
1063;DHT22;520;50.932;6.962;2023-02-21T16:51:11;11.40;99.90
1063;DHT22;520;50.932;6.962;2023-02-21T16:53:40;11.40;99.90
1063;DHT22;520;50.932;6.962;2023-02-21T16:56:07;11.50;99.90
1063;DHT22;520;50.932;6.962;2023-02-21T16:58:37;11.70;99.90
1063;DHT22;520;50.932;6.962;2023-02-21T17:01:14;11.60;99.90
1063;DHT22;520;50.932;6.962;2023-02-21T17:03:43;11.40;99.90
1063;DHT22;520;50.932;6.962;2023-02-21T17:06:16;11.30;99.90
1063;DHT22;520;50.932;6.962;2023-02-21T17:08:44;11.20;99.90
1063;DHT22;520;50.932;6.962;2023-02-21T17:11:11;11.30;99.90
1063;DHT22;520;50.932;6.962;2023-02-21T17:13:38;11.20;99.90
1063;DHT22;520;50.932;6.962;2023-02-21T17:16:07;11.00;99.90
1063;DHT22;520;50.932;6.962;2023-02-21T17:18:34;11.10;99.90
1063;DHT22;520;50.932;6.962;2023-02-21T17:21:01;11.10;99.90
1063;DHT22;520;50.932;6.962;2023-02-21T17:23:29;11.20;99.90
1063;DHT22;520;50.932;6.962;2023-02-21T17:25:59;11.10;99.90
1063;DHT22;520;50.932;6.962;2023-02-21T17:28:28;11.20;99.90
1063;DHT22;520;50.932;6.962;2023-02-21T17:30:55;11.10;99.90
1063;DHT22;520;50.932;6.962;2023-02-21T17:33:22;11.00;99.90
1063;DHT22;520;50.932;6.962;2023-02-21T17:35:52;11.00;99.90
1063;DHT22;520;50.932;6.962;2023-02-21T17:38:19;10.90;99.90
1063;DHT22;520;50.932;6.962;2023-02-21T17:40:46;10.80;99.90
1063;DHT22;520;50.932;6.962;2023-02-21T17:43:14;10.70;99.90
1063;DHT22;520;50.932;6.962;2023-02-21T17:45:42;10.90;99.90
1063;DHT22;520;50.932;6.962;2023-02-21T17:48:13;10.90;99.90
1063;DHT22;520;50.932;6.962;2023-02-21T17:50:42;10.70;99.90
1063;DHT22;520;50.932;6.962;2023-02-21T17:53:09;10.70;99.90
1063;DHT22;520;50.932;6.962;2023-02-21T17:55:36;10.80;99.90
1063;DHT22;520;50.932;6.962;2023-02-21T17:58:03;10.90;99.90
1063;DHT22;520;50.932;6.962;2023-02-21T18:00:30;11.00;99.90
1063;DHT22;520;50.932;6.962;2023-02-21T18:03:01;11.20;99.90
1063;DHT22;520;50.932;6.962;2023-02-21T18:05:30;11.10;99.90
1063;DHT22;520;50.932;6.962;2023-02-21T18:07:59;10.80;99.90
1063;DHT22;520;50.932;6.962;2023-02-21T18:10:26;11.00;99.90
1063;DHT22;520;50.932;6.962;2023-02-21T18:12:53;10.80;99.90
1063;DHT22;520;50.932;6.962;2023-02-21T18:15:24;10.60;99.90
1063;DHT22;520;50.932;6.962;2023-02-21T18:17:53;10.60;99.90
1063;DHT22;520;50.932;6.962;2023-02-21T18:20:21;10.50;99.90
1063;DHT22;520;50.932;6.962;2023-02-21T18:22:48;10.50;99.90
1063;DHT22;520;50.932;6.962;2023-02-21T18:25:16;10.70;99.90
1063;DHT22;520;50.932;6.962;2023-02-21T18:27:44;10.70;99.90
1063;DHT22;520;50.932;6.962;2023-02-21T18:30:11;11.00;99.90
1063;DHT22;520;50.932;6.962;2023-02-21T18:32:39;11.10;99.90
1063;DHT22;520;50.932;6.962;2023-02-21T18:35:09;10.80;99.90
1063;DHT22;520;50.932;6.962;2023-02-21T18:37:41;10.90;99.90
1063;DHT22;520;50.932;6.962;2023-02-21T18:40:10;10.80;99.90
1063;DHT22;520;50.932;6.962;2023-02-21T18:42:40;10.70;99.90
1063;DHT22;520;50.932;6.962;2023-02-21T18:45:11;10.60;99.90
1063;DHT22;520;50.932;6.962;2023-02-21T18:47:38;10.60;99.90
1063;DHT22;520;50.932;6.962;2023-02-21T18:50:06;10.60;99.90
1063;DHT22;520;50.932;6.962;2023-02-21T18:52:33;10.70;99.90
1063;DHT22;520;50.932;6.962;2023-02-21T18:55:00;10.60;99.90
1063;DHT22;520;50.932;6.962;2023-02-21T18:57:31;10.50;99.90
1063;DHT22;520;50.932;6.962;2023-02-21T18:59:57;10.40;99.90
1063;DHT22;520;50.932;6.962;2023-02-21T19:02:24;10.60;99.90
1063;DHT22;520;50.932;6.962;2023-02-21T19:04:52;10.50;99.90
1063;DHT22;520;50.932;6.962;2023-02-21T19:07:23;10.30;99.90
1063;DHT22;520;50.932;6.962;2023-02-21T19:09:50;10.20;99.90
1063;DHT22;520;50.932;6.962;2023-02-21T19:12:17;10.10;99.90
1063;DHT22;520;50.932;6.962;2023-02-21T19:14:45;10.10;99.90
1063;DHT22;520;50.932;6.962;2023-02-21T19:17:12;10.20;99.90
1063;DHT22;520;50.932;6.962;2023-02-21T19:19:39;10.30;99.90
1063;DHT22;520;50.932;6.962;2023-02-21T19:22:06;10.60;99.90
1063;DHT22;520;50.932;6.962;2023-02-21T19:24:34;10.40;99.90
1063;DHT22;520;50.932;6.962;2023-02-21T19:27:01;10.60;99.90
1063;DHT22;520;50.932;6.962;2023-02-21T19:29:28;10.50;99.90
1063;DHT22;520;50.932;6.962;2023-02-21T19:31:55;10.50;99.90
1063;DHT22;520;50.932;6.962;2023-02-21T19:34:23;10.50;99.90
1063;DHT22;520;50.932;6.962;2023-02-21T19:36:51;10.40;99.90
1063;DHT22;520;50.932;6.962;2023-02-21T19:39:18;10.30;99.90